sensor_id;sensor_type;location;lat;lon;timestamp;pressure;altitude;pressure_sealevel;temperature;humidity
69219;BME280;56232;53.384;-2.732;2023-04-06T00:00:33;100847.56;;;10.64;38.34
69219;BME280;56232;53.384;-2.732;2023-04-06T00:02:58;100845.91;;;10.55;38.67
69219;BME280;56232;53.384;-2.732;2023-04-06T00:05:24;100842.49;;;10.53;38.53
69219;BME280;56232;53.384;-2.732;2023-04-06T00:07:51;100841.22;;;10.93;39.01
69219;BME280;56232;53.384;-2.732;2023-04-06T00:10:16;100837.02;;;10.37;39.95
69219;BME280;56232;53.384;-2.732;2023-04-06T00:12:41;100830.99;;;10.31;39.16
69219;BME280;56232;53.384;-2.732;2023-04-06T00:15:08;100827.02;;;10.42;39.82
69219;BME280;56232;53.384;-2.732;2023-04-06T00:17:33;100822.31;;;9.97;39.97
69219;BME280;56232;53.384;-2.732;2023-04-06T00:19:58;100817.01;;;10.64;39.97
69219;BME280;56232;53.384;-2.732;2023-04-06T00:22:24;100816.47;;;10.13;39.90
69219;BME280;56232;53.384;-2.732;2023-04-06T00:24:51;100816.22;;;10.88;39.34
69219;BME280;56232;53.384;-2.732;2023-04-06T00:27:15;100812.83;;;10.94;39.78
69219;BME280;56232;53.384;-2.732;2023-04-06T00:29:41;100813.72;;;10.96;39.41
69219;BME280;56232;53.384;-2.732;2023-04-06T00:32:07;100811.45;;;10.50;39.91
69219;BME280;56232;53.384;-2.732;2023-04-06T00:34:33;100809.29;;;10.46;38.77
69219;BME280;56232;53.384;-2.732;2023-04-06T00:36:58;100807.33;;;10.93;38.78
69219;BME280;56232;53.384;-2.732;2023-04-06T00:39:24;100805.79;;;10.88;38.83
69219;BME280;56232;53.384;-2.732;2023-04-06T00:41:52;100805.57;;;10.74;38.49
69219;BME280;56232;53.384;-2.732;2023-04-06T00:44:15;100805.92;;;10.03;39.74
69219;BME280;56232;53.384;-2.732;2023-04-06T00:46:41;100808.96;;;10.57;38.74
69219;BME280;56232;53.384;-2.732;2023-04-06T00:49:06;100811.83;;;9.87;38.67
69219;BME280;56232;53.384;-2.732;2023-04-06T00:51:32;100807.94;;;10.39;39.13
69219;BME280;56232;53.384;-2.732;2023-04-06T00:53:58;100801.84;;;10.34;40.46
69219;BME280;56232;53.384;-2.732;2023-04-06T00:56:24;100803.83;;;10.37;39.90
69219;BME280;56232;53.384;-2.732;2023-04-06T00:58:51;100802.59;;;10.39;39.57
69219;BME280;56232;53.384;-2.732;2023-04-06T01:01:15;100801.80;;;9.83;39.95
69219;BME280;56232;53.384;-2.732;2023-04-06T01:03:41;100803.34;;;9.94;40.43
69219;BME280;56232;53.384;-2.732;2023-04-06T01:06:06;100800.00;;;10.70;40.26
69219;BME280;56232;53.384;-2.732;2023-04-06T01:08:32;100793.37;;;10.76;40.43
69219;BME280;56232;53.384;-2.732;2023-04-06T01:10:59;100797.35;;;10.83;39.67
69219;BME280;56232;53.384;-2.732;2023-04-06T01:13:23;100796.46;;;10.45;40.02
69219;BME280;56232;53.384;-2.732;2023-04-06T01:15:50;100796.05;;;10.47;38.81
69219;BME280;56232;53.384;-2.732;2023-04-06T01:18:15;100793.09;;;10.43;38.23
69219;BME280;56232;53.384;-2.732;2023-04-06T01:20:40;100790.57;;;11.00;38.77
69219;BME280;56232;53.384;-2.732;2023-04-06T01:23:06;100790.14;;;9.98;39.72
69219;BME280;56232;53.384;-2.732;2023-04-06T01:25:32;100791.75;;;10.11;39.06
69219;BME280;56232;53.384;-2.732;2023-04-06T01:27:57;100791.56;;;10.68;39.06
69219;BME280;56232;53.384;-2.732;2023-04-06T01:30:23;100786.68;;;10.56;39.20
69219;BME280;56232;53.384;-2.732;2023-04-06T01:32:49;100786.21;;;10.44;39.69
69219;BME280;56232;53.384;-2.732;2023-04-06T01:35:14;100783.89;;;9.89;39.36
69219;BME280;56232;53.384;-2.732;2023-04-06T01:37:40;100781.59;;;10.42;39.29
69219;BME280;56232;53.384;-2.732;2023-04-06T01:40:07;100776.26;;;10.40;37.82
69219;BME280;56232;53.384;-2.732;2023-04-06T01:42:31;100773.61;;;10.45;38.54
69219;BME280;56232;53.384;-2.732;2023-04-06T01:44:57;100770.59;;;9.97;39.56
69219;BME280;56232;53.384;-2.732;2023-04-06T01:47:23;100768.37;;;10.60;39.69
69219;BME280;56232;53.384;-2.732;2023-04-06T01:49:50;100765.22;;;11.24;40.43
69219;BME280;56232;53.384;-2.732;2023-04-06T01:52:14;100763.99;;;10.72;40.41
69219;BME280;56232;53.384;-2.732;2023-04-06T01:54:40;100762.80;;;10.29;39.73
69219;BME280;56232;53.384;-2.732;2023-04-06T01:57:05;100763.97;;;10.84;40.12
69219;BME280;56232;53.384;-2.732;2023-04-06T01:59:31;100760.67;;;10.73;39.58
69219;BME280;56232;53.384;-2.732;2023-04-06T02:01:57;100756.49;;;10.71;38.55
69219;BME280;56232;53.384;-2.732;2023-04-06T02:04:22;100752.51;;;10.54;39.20
69219;BME280;56232;53.384;-2.732;2023-04-06T02:06:49;100749.90;;;11.07;39.38
69219;BME280;56232;53.384;-2.732;2023-04-06T02:09:14;100745.45;;;11.14;40.00
69219;BME280;56232;53.384;-2.732;2023-04-06T02:11:40;100743.77;;;10.56;39.92
69219;BME280;56232;53.384;-2.732;2023-04-06T02:14:05;100743.99;;;11.28;40.12
69219;BME280;56232;53.384;-2.732;2023-04-06T02:16:31;100742.51;;;10.80;39.36
69219;BME280;56232;53.384;-2.732;2023-04-06T02:18:57;100743.11;;;10.84;39.11
69219;BME280;56232;53.384;-2.732;2023-04-06T02:21:22;100740.39;;;10.88;39.47
69219;BME280;56232;53.384;-2.732;2023-04-06T02:23:49;100736.57;;;10.33;40.10
69219;BME280;56232;53.384;-2.732;2023-04-06T02:26:14;100731.15;;;11.43;39.92
69219;BME280;56232;53.384;-2.732;2023-04-06T02:28:39;100726.86;;;11.47;39.39
69219;BME280;56232;53.384;-2.732;2023-04-06T02:31:05;100726.35;;;10.81;38.28
69219;BME280;56232;53.384;-2.732;2023-04-06T02:33:31;100723.52;;;10.72;38.71
69219;BME280;56232;53.384;-2.732;2023-04-06T02:35:57;100721.64;;;10.17;37.51
69219;BME280;56232;53.384;-2.732;2023-04-06T02:38:22;100719.77;;;10.64;38.51
69219;BME280;56232;53.384;-2.732;2023-04-06T02:40:49;100719.42;;;11.18;37.78
69219;BME280;56232;53.384;-2.732;2023-04-06T02:43:14;100717.13;;;9.94;39.33
69219;BME280;56232;53.384;-2.732;2023-04-06T02:45:39;100716.03;;;11.05;38.65
69219;BME280;56232;53.384;-2.732;2023-04-06T02:48:05;100712.92;;;10.44;38.37
69219;BME280;56232;53.384;-2.732;2023-04-06T02:50:30;100711.63;;;10.41;36.46
69219;BME280;56232;53.384;-2.732;2023-04-06T02:52:56;100709.73;;;10.71;37.03
69219;BME280;56232;53.384;-2.732;2023-04-06T02:55:21;100708.47;;;10.01;38.35
69219;BME280;56232;53.384;-2.732;2023-04-06T02:57:47;100707.48;;;10.56;38.73
69219;BME280;56232;53.384;-2.732;2023-04-06T03:00:13;100707.91;;;9.93;38.13
69219;BME280;56232;53.384;-2.732;2023-04-06T03:02:38;100705.16;;;10.60;39.51
69219;BME280;56232;53.384;-2.732;2023-04-06T03:05:04;100701.41;;;10.69;38.12
69219;BME280;56232;53.384;-2.732;2023-04-06T03:07:29;100698.20;;;10.08;38.59
69219;BME280;56232;53.384;-2.732;2023-04-06T03:09:54;100699.66;;;10.75;39.14
69219;BME280;56232;53.384;-2.732;2023-04-06T03:12:20;100689.58;;;10.72;38.41
69219;BME280;56232;53.384;-2.732;2023-04-06T03:14:46;100679.03;;;10.64;38.51
69219;BME280;56232;53.384;-2.732;2023-04-06T03:17:11;100671.38;;;10.02;38.40
69219;BME280;56232;53.384;-2.732;2023-04-06T03:19:37;100675.10;;;10.61;38.88
69219;BME280;56232;53.384;-2.732;2023-04-06T03:22:02;100676.26;;;9.99;39.11
69219;BME280;56232;53.384;-2.732;2023-04-06T03:24:28;100677.06;;;10.21;39.70
69219;BME280;56232;53.384;-2.732;2023-04-06T03:26:53;100675.54;;;10.52;40.16
69219;BME280;56232;53.384;-2.732;2023-04-06T03:29:19;100670.02;;;11.19;38.92
69219;BME280;56232;53.384;-2.732;2023-04-06T03:31:44;100670.45;;;10.43;37.04
69219;BME280;56232;53.384;-2.732;2023-04-06T03:34:10;100673.44;;;11.43;37.92
69219;BME280;56232;53.384;-2.732;2023-04-06T03:36:35;100676.82;;;9.84;38.70
69219;BME280;56232;53.384;-2.732;2023-04-06T03:39:01;100675.63;;;10.96;38.13
69219;BME280;56232;53.384;-2.732;2023-04-06T03:41:26;100673.91;;;10.94;37.61
69219;BME280;56232;53.384;-2.732;2023-04-06T03:43:52;100673.33;;;10.80;37.24
69219;BME280;56232;53.384;-2.732;2023-04-06T03:46:17;100669.07;;;10.75;37.15
69219;BME280;56232;53.384;-2.732;2023-04-06T03:48:42;100665.57;;;10.12;37.78
69219;BME280;56232;53.384;-2.732;2023-04-06T03:51:08;100664.58;;;10.72;38.01
69219;BME280;56232;53.384;-2.732;2023-04-06T03:53:33;100667.41;;;10.70;38.02
69219;BME280;56232;53.384;-2.732;2023-04-06T03:55:58;100670.72;;;10.61;38.09
69219;BME280;56232;53.384;-2.732;2023-04-06T03:58:24;100673.61;;;10.39;37.33
69219;BME280;56232;53.384;-2.732;2023-04-06T04:00:50;100670.97;;;10.79;37.80
69219;BME280;56232;53.384;-2.732;2023-04-06T04:03:14;100665.09;;;10.21;38.41
69219;BME280;56232;53.384;-2.732;2023-04-06T04:05:40;100667.14;;;8.96;38.63
69219;BME280;56232;53.384;-2.732;2023-04-06T04:08:06;100668.67;;;10.06;39.60
69219;BME280;56232;53.384;-2.732;2023-04-06T04:10:31;100668.13;;;9.43;38.44
69219;BME280;56232;53.384;-2.732;2023-04-06T04:12:57;100665.35;;;9.94;37.81
69219;BME280;56232;53.384;-2.732;2023-04-06T04:15:22;100662.73;;;10.87;37.78
69219;BME280;56232;53.384;-2.732;2023-04-06T04:17:49;100657.33;;;9.68;38.34
69219;BME280;56232;53.384;-2.732;2023-04-06T04:20:14;100657.43;;;9.73;38.18
69219;BME280;56232;53.384;-2.732;2023-04-06T04:22:40;100659.28;;;9.64;37.86
69219;BME280;56232;53.384;-2.732;2023-04-06T04:25:05;100660.91;;;10.10;37.93
69219;BME280;56232;53.384;-2.732;2023-04-06T04:27:30;100656.44;;;9.51;37.58
69219;BME280;56232;53.384;-2.732;2023-04-06T04:29:56;100655.04;;;9.43;37.84
69219;BME280;56232;53.384;-2.732;2023-04-06T04:32:22;100652.10;;;9.88;37.86
69219;BME280;56232;53.384;-2.732;2023-04-06T04:34:47;100651.33;;;9.40;38.13
69219;BME280;56232;53.384;-2.732;2023-04-06T04:37:13;100659.20;;;10.40;38.60
69219;BME280;56232;53.384;-2.732;2023-04-06T04:39:38;100664.61;;;9.36;38.49
69219;BME280;56232;53.384;-2.732;2023-04-06T04:42:04;100669.54;;;9.74;38.86
69219;BME280;56232;53.384;-2.732;2023-04-06T04:44:30;100672.35;;;9.25;38.67
69219;BME280;56232;53.384;-2.732;2023-04-06T04:46:56;100673.94;;;9.16;39.25
69219;BME280;56232;53.384;-2.732;2023-04-06T04:49:21;100665.54;;;9.52;38.18
69219;BME280;56232;53.384;-2.732;2023-04-06T04:51:47;100665.99;;;10.43;38.29
69219;BME280;56232;53.384;-2.732;2023-04-06T04:54:13;100675.48;;;9.79;38.72
69219;BME280;56232;53.384;-2.732;2023-04-06T04:56:38;100687.34;;;9.72;38.92
69219;BME280;56232;53.384;-2.732;2023-04-06T04:59:04;100693.43;;;9.05;39.02
69219;BME280;56232;53.384;-2.732;2023-04-06T05:01:30;100691.86;;;9.76;38.69
69219;BME280;56232;53.384;-2.732;2023-04-06T05:03:56;100689.85;;;9.72;38.41
69219;BME280;56232;53.384;-2.732;2023-04-06T05:06:21;100691.78;;;9.22;38.13
69219;BME280;56232;53.384;-2.732;2023-04-06T05:08:47;100698.48;;;8.90;38.52
69219;BME280;56232;53.384;-2.732;2023-04-06T05:11:13;100699.39;;;10.01;38.37
69219;BME280;56232;53.384;-2.732;2023-04-06T05:13:39;100702.83;;;8.93;38.07
69219;BME280;56232;53.384;-2.732;2023-04-06T05:16:04;100721.07;;;9.97;37.60
69219;BME280;56232;53.384;-2.732;2023-04-06T05:18:30;100727.09;;;9.69;37.53
69219;BME280;56232;53.384;-2.732;2023-04-06T05:20:56;100726.29;;;9.51;38.54
69219;BME280;56232;53.384;-2.732;2023-04-06T05:23:21;100721.10;;;9.57;38.80
69219;BME280;56232;53.384;-2.732;2023-04-06T05:25:47;100728.39;;;9.62;37.77
69219;BME280;56232;53.384;-2.732;2023-04-06T05:28:12;100731.07;;;9.69;38.06
69219;BME280;56232;53.384;-2.732;2023-04-06T05:30:38;100730.27;;;9.65;37.44
69219;BME280;56232;53.384;-2.732;2023-04-06T05:33:04;100733.91;;;9.59;38.43
69219;BME280;56232;53.384;-2.732;2023-04-06T05:35:30;100739.00;;;9.77;37.79
69219;BME280;56232;53.384;-2.732;2023-04-06T05:37:55;100750.65;;;9.78;38.62
69219;BME280;56232;53.384;-2.732;2023-04-06T05:40:21;100753.70;;;9.90;37.63
69219;BME280;56232;53.384;-2.732;2023-04-06T05:42:46;100745.84;;;9.89;37.84
69219;BME280;56232;53.384;-2.732;2023-04-06T05:45:12;100742.67;;;9.71;38.45
69219;BME280;56232;53.384;-2.732;2023-04-06T05:47:38;100743.57;;;9.58;38.28
69219;BME280;56232;53.384;-2.732;2023-04-06T05:50:04;100747.17;;;9.96;38.62
69219;BME280;56232;53.384;-2.732;2023-04-06T05:52:29;100754.39;;;8.75;38.22
69219;BME280;56232;53.384;-2.732;2023-04-06T05:54:54;100756.77;;;9.17;38.36
69219;BME280;56232;53.384;-2.732;2023-04-06T05:57:19;100759.78;;;9.09;38.44
69219;BME280;56232;53.384;-2.732;2023-04-06T05:59:45;100766.26;;;9.13;38.43
69219;BME280;56232;53.384;-2.732;2023-04-06T06:02:10;100770.37;;;8.51;38.65
69219;BME280;56232;53.384;-2.732;2023-04-06T06:04:35;100770.22;;;9.15;38.97
69219;BME280;56232;53.384;-2.732;2023-04-06T06:07:01;100771.94;;;9.16;38.92
69219;BME280;56232;53.384;-2.732;2023-04-06T06:09:27;100768.45;;;8.50;39.05
69219;BME280;56232;53.384;-2.732;2023-04-06T06:11:52;100771.86;;;9.47;39.42
69219;BME280;56232;53.384;-2.732;2023-04-06T06:14:18;100773.68;;;9.82;39.18
69219;BME280;56232;53.384;-2.732;2023-04-06T06:16:44;100779.35;;;9.07;38.52
69219;BME280;56232;53.384;-2.732;2023-04-06T06:19:09;100780.53;;;8.92;38.67
69219;BME280;56232;53.384;-2.732;2023-04-06T06:21:35;100786.19;;;8.39;39.25
69219;BME280;56232;53.384;-2.732;2023-04-06T06:24:01;100787.68;;;8.82;38.75
69219;BME280;56232;53.384;-2.732;2023-04-06T06:26:26;100780.91;;;8.35;39.29
69219;BME280;56232;53.384;-2.732;2023-04-06T06:28:52;100784.75;;;9.49;38.50
69219;BME280;56232;53.384;-2.732;2023-04-06T06:31:17;100780.77;;;9.21;38.44
69219;BME280;56232;53.384;-2.732;2023-04-06T06:33:42;100779.72;;;8.75;38.69
69219;BME280;56232;53.384;-2.732;2023-04-06T06:36:08;100780.49;;;9.18;39.11
69219;BME280;56232;53.384;-2.732;2023-04-06T06:38:33;100779.68;;;8.66;38.62
69219;BME280;56232;53.384;-2.732;2023-04-06T06:40:59;100787.74;;;8.97;38.44
69219;BME280;56232;53.384;-2.732;2023-04-06T06:43:25;100792.37;;;8.29;38.50
69219;BME280;56232;53.384;-2.732;2023-04-06T06:45:51;100797.12;;;9.31;38.56
69219;BME280;56232;53.384;-2.732;2023-04-06T06:48:16;100802.42;;;9.43;38.13
69219;BME280;56232;53.384;-2.732;2023-04-06T06:50:41;100794.15;;;11.99;35.78
69219;BME280;56232;53.384;-2.732;2023-04-06T06:53:07;100792.99;;;14.02;33.55
69219;BME280;56232;53.384;-2.732;2023-04-06T06:55:33;100794.64;;;15.86;32.51
69219;BME280;56232;53.384;-2.732;2023-04-06T06:57:59;100795.58;;;18.38;30.70
69219;BME280;56232;53.384;-2.732;2023-04-06T07:00:25;100799.17;;;17.70;29.02
69219;BME280;56232;53.384;-2.732;2023-04-06T07:02:51;100793.59;;;19.23;28.03
69219;BME280;56232;53.384;-2.732;2023-04-06T07:05:15;100793.11;;;20.20;27.24
69219;BME280;56232;53.384;-2.732;2023-04-06T07:07:41;100792.98;;;18.04;28.41
69219;BME280;56232;53.384;-2.732;2023-04-06T07:10:08;100803.21;;;16.55;28.61
69219;BME280;56232;53.384;-2.732;2023-04-06T07:12:32;100806.42;;;15.55;29.69
69219;BME280;56232;53.384;-2.732;2023-04-06T07:14:58;100816.17;;;15.25;30.52
69219;BME280;56232;53.384;-2.732;2023-04-06T07:17:23;100818.43;;;14.20;31.33
69219;BME280;56232;53.384;-2.732;2023-04-06T07:19:49;100821.79;;;13.30;31.04
69219;BME280;56232;53.384;-2.732;2023-04-06T07:22:14;100821.06;;;14.47;31.93
69219;BME280;56232;53.384;-2.732;2023-04-06T07:24:40;100819.54;;;13.65;32.09
69219;BME280;56232;53.384;-2.732;2023-04-06T07:27:05;100820.94;;;13.07;32.14
69219;BME280;56232;53.384;-2.732;2023-04-06T07:29:31;100823.31;;;12.64;32.84
69219;BME280;56232;53.384;-2.732;2023-04-06T07:31:57;100824.00;;;12.10;32.51
69219;BME280;56232;53.384;-2.732;2023-04-06T07:34:22;100828.99;;;12.44;33.22
69219;BME280;56232;53.384;-2.732;2023-04-06T07:36:48;100828.58;;;12.00;34.01
69219;BME280;56232;53.384;-2.732;2023-04-06T07:39:13;100826.77;;;12.01;33.89
69219;BME280;56232;53.384;-2.732;2023-04-06T07:41:39;100824.44;;;11.98;33.89
69219;BME280;56232;53.384;-2.732;2023-04-06T07:44:05;100821.83;;;11.63;34.00
69219;BME280;56232;53.384;-2.732;2023-04-06T07:46:30;100824.63;;;11.37;34.23
69219;BME280;56232;53.384;-2.732;2023-04-06T07:48:56;100824.04;;;11.15;34.14
69219;BME280;56232;53.384;-2.732;2023-04-06T07:51:21;100822.02;;;10.98;34.63
69219;BME280;56232;53.384;-2.732;2023-04-06T07:53:47;100820.40;;;11.85;34.41
69219;BME280;56232;53.384;-2.732;2023-04-06T07:56:12;100813.75;;;12.14;33.93
69219;BME280;56232;53.384;-2.732;2023-04-06T07:58:38;100814.70;;;13.18;33.66
69219;BME280;56232;53.384;-2.732;2023-04-06T08:01:03;100823.17;;;14.57;32.12
69219;BME280;56232;53.384;-2.732;2023-04-06T08:03:29;100825.43;;;14.79;32.48
69219;BME280;56232;53.384;-2.732;2023-04-06T08:05:55;100828.78;;;14.85;31.98
69219;BME280;56232;53.384;-2.732;2023-04-06T08:08:20;100836.83;;;13.40;32.15
69219;BME280;56232;53.384;-2.732;2023-04-06T08:10:46;100834.63;;;13.40;32.80
69219;BME280;56232;53.384;-2.732;2023-04-06T08:13:12;100836.88;;;12.38;33.46
69219;BME280;56232;53.384;-2.732;2023-04-06T08:15:37;100841.28;;;12.21;33.71
69219;BME280;56232;53.384;-2.732;2023-04-06T08:18:03;100844.90;;;13.72;33.17
69219;BME280;56232;53.384;-2.732;2023-04-06T08:20:28;100845.75;;;12.83;33.47
69219;BME280;56232;53.384;-2.732;2023-04-06T08:22:53;100838.26;;;13.12;32.74
69219;BME280;56232;53.384;-2.732;2023-04-06T08:25:19;100838.39;;;15.31;30.78
69219;BME280;56232;53.384;-2.732;2023-04-06T08:27:45;100832.08;;;18.11;28.95
69219;BME280;56232;53.384;-2.732;2023-04-06T08:30:10;100838.40;;;19.26;27.45
69219;BME280;56232;53.384;-2.732;2023-04-06T08:32:36;100845.94;;;20.08;26.49
69219;BME280;56232;53.384;-2.732;2023-04-06T08:35:01;100845.83;;;18.86;27.35
69219;BME280;56232;53.384;-2.732;2023-04-06T08:37:27;100851.20;;;17.38;28.10
69219;BME280;56232;53.384;-2.732;2023-04-06T08:39:53;100854.43;;;17.13;28.34
69219;BME280;56232;53.384;-2.732;2023-04-06T08:42:20;100848.32;;;18.12;27.19
69219;BME280;56232;53.384;-2.732;2023-04-06T08:44:44;100848.78;;;20.30;25.73
69219;BME280;56232;53.384;-2.732;2023-04-06T08:47:10;100850.28;;;20.61;25.36
69219;BME280;56232;53.384;-2.732;2023-04-06T08:49:37;100850.92;;;20.74;24.82
69219;BME280;56232;53.384;-2.732;2023-04-06T08:52:01;100846.97;;;20.97;24.40
69219;BME280;56232;53.384;-2.732;2023-04-06T08:54:27;100848.74;;;22.32;24.08
69219;BME280;56232;53.384;-2.732;2023-04-06T08:56:53;100846.03;;;23.01;23.42
69219;BME280;56232;53.384;-2.732;2023-04-06T08:59:18;100852.00;;;22.33;23.64
69219;BME280;56232;53.384;-2.732;2023-04-06T09:01:44;100849.94;;;22.90;22.99
69219;BME280;56232;53.384;-2.732;2023-04-06T09:04:09;100853.50;;;23.16;22.41
69219;BME280;56232;53.384;-2.732;2023-04-06T09:06:35;100853.02;;;23.06;22.35
69219;BME280;56232;53.384;-2.732;2023-04-06T09:09:00;100848.22;;;22.75;22.45
69219;BME280;56232;53.384;-2.732;2023-04-06T09:11:26;100858.23;;;23.32;22.34
69219;BME280;56232;53.384;-2.732;2023-04-06T09:13:54;100854.05;;;22.22;23.01
69219;BME280;56232;53.384;-2.732;2023-04-06T09:16:18;100858.06;;;21.37;23.85
69219;BME280;56232;53.384;-2.732;2023-04-06T09:18:42;100861.15;;;21.57;23.81
69219;BME280;56232;53.384;-2.732;2023-04-06T09:21:09;100862.80;;;21.87;23.49
69219;BME280;56232;53.384;-2.732;2023-04-06T09:23:34;100865.94;;;23.04;22.96
69219;BME280;56232;53.384;-2.732;2023-04-06T09:26:05;100868.41;;;22.48;22.74
69219;BME280;56232;53.384;-2.732;2023-04-06T09:28:25;100865.42;;;23.62;21.84
69219;BME280;56232;53.384;-2.732;2023-04-06T09:30:51;100871.50;;;24.03;21.76
69219;BME280;56232;53.384;-2.732;2023-04-06T09:33:22;100872.29;;;24.28;21.92
69219;BME280;56232;53.384;-2.732;2023-04-06T09:35:49;100880.76;;;21.59;23.13
69219;BME280;56232;53.384;-2.732;2023-04-06T09:38:11;100884.21;;;20.16;23.85
69219;BME280;56232;53.384;-2.732;2023-04-06T09:40:33;100885.01;;;21.25;23.88
69219;BME280;56232;53.384;-2.732;2023-04-06T09:42:58;100890.60;;;22.02;23.84
69219;BME280;56232;53.384;-2.732;2023-04-06T09:45:24;100886.26;;;21.63;23.10
69219;BME280;56232;53.384;-2.732;2023-04-06T09:47:51;100889.30;;;22.95;22.63
69219;BME280;56232;53.384;-2.732;2023-04-06T09:50:15;100890.96;;;22.89;22.31
69219;BME280;56232;53.384;-2.732;2023-04-06T09:52:46;100893.79;;;22.04;22.50
69219;BME280;56232;53.384;-2.732;2023-04-06T09:55:07;100897.16;;;22.67;22.28
69219;BME280;56232;53.384;-2.732;2023-04-06T09:57:37;100895.35;;;22.99;22.51
69219;BME280;56232;53.384;-2.732;2023-04-06T10:00:02;100892.80;;;22.45;23.31
69219;BME280;56232;53.384;-2.732;2023-04-06T10:02:30;100903.09;;;20.91;24.78
69219;BME280;56232;53.384;-2.732;2023-04-06T10:04:54;100913.72;;;19.61;24.95
69219;BME280;56232;53.384;-2.732;2023-04-06T10:07:14;100909.54;;;18.51;26.48
69219;BME280;56232;53.384;-2.732;2023-04-06T10:09:40;100911.14;;;19.22;26.91
69219;BME280;56232;53.384;-2.732;2023-04-06T10:12:06;100909.36;;;18.81;26.88
69219;BME280;56232;53.384;-2.732;2023-04-06T10:14:33;100911.73;;;18.89;27.56
69219;BME280;56232;53.384;-2.732;2023-04-06T10:16:57;100915.68;;;18.75;27.18
69219;BME280;56232;53.384;-2.732;2023-04-06T10:19:26;100920.69;;;20.15;26.69
69219;BME280;56232;53.384;-2.732;2023-04-06T10:21:53;100918.47;;;19.17;26.61
69219;BME280;56232;53.384;-2.732;2023-04-06T10:24:13;100922.95;;;17.86;27.68
69219;BME280;56232;53.384;-2.732;2023-04-06T10:26:39;100929.57;;;17.76;28.98
69219;BME280;56232;53.384;-2.732;2023-04-06T10:29:05;100929.34;;;16.22;29.53
69219;BME280;56232;53.384;-2.732;2023-04-06T10:31:30;100935.71;;;16.76;30.18
69219;BME280;56232;53.384;-2.732;2023-04-06T10:33:56;100933.61;;;16.74;29.78
69219;BME280;56232;53.384;-2.732;2023-04-06T10:36:23;100934.86;;;15.90;29.47
69219;BME280;56232;53.384;-2.732;2023-04-06T10:38:53;100938.06;;;16.30;29.99
69219;BME280;56232;53.384;-2.732;2023-04-06T10:41:12;100943.31;;;17.53;30.12
69219;BME280;56232;53.384;-2.732;2023-04-06T10:43:39;100939.66;;;17.09;30.27
69219;BME280;56232;53.384;-2.732;2023-04-06T10:46:05;100940.64;;;16.80;30.31
69219;BME280;56232;53.384;-2.732;2023-04-06T10:48:36;100946.69;;;16.59;30.35
69219;BME280;56232;53.384;-2.732;2023-04-06T10:50:55;100947.36;;;17.29;30.30
69219;BME280;56232;53.384;-2.732;2023-04-06T10:53:22;100945.86;;;16.01;30.93
69219;BME280;56232;53.384;-2.732;2023-04-06T10:55:47;100945.49;;;16.53;31.06
69219;BME280;56232;53.384;-2.732;2023-04-06T10:58:12;100947.54;;;16.84;30.85
69219;BME280;56232;53.384;-2.732;2023-04-06T11:00:44;100944.94;;;16.70;31.48
69219;BME280;56232;53.384;-2.732;2023-04-06T11:03:03;100951.51;;;16.30;31.03
69219;BME280;56232;53.384;-2.732;2023-04-06T11:05:29;100954.40;;;16.12;32.18
69219;BME280;56232;53.384;-2.732;2023-04-06T11:07:55;100950.60;;;16.27;32.23
69219;BME280;56232;53.384;-2.732;2023-04-06T11:10:21;100946.79;;;16.02;31.23
69219;BME280;56232;53.384;-2.732;2023-04-06T11:12:53;100947.34;;;16.90;30.94
69219;BME280;56232;53.384;-2.732;2023-04-06T11:15:11;100957.41;;;17.15;30.93
69219;BME280;56232;53.384;-2.732;2023-04-06T11:17:37;100958.06;;;17.22;31.36
69219;BME280;56232;53.384;-2.732;2023-04-06T11:20:09;100957.09;;;16.56;31.82
69219;BME280;56232;53.384;-2.732;2023-04-06T11:22:28;100968.79;;;16.35;31.70
69219;BME280;56232;53.384;-2.732;2023-04-06T11:25:04;100971.35;;;16.03;32.83
69219;BME280;56232;53.384;-2.732;2023-04-06T11:27:19;100970.71;;;16.86;32.55
69219;BME280;56232;53.384;-2.732;2023-04-06T11:29:45;100973.71;;;16.34;32.71
69219;BME280;56232;53.384;-2.732;2023-04-06T11:32:10;100978.19;;;16.66;33.11
69219;BME280;56232;53.384;-2.732;2023-04-06T11:34:37;100979.21;;;16.01;32.83
69219;BME280;56232;53.384;-2.732;2023-04-06T11:37:02;100979.33;;;16.42;32.22
69219;BME280;56232;53.384;-2.732;2023-04-06T11:39:28;100978.09;;;16.49;32.46
69219;BME280;56232;53.384;-2.732;2023-04-06T11:41:54;100982.62;;;16.30;32.09
69219;BME280;56232;53.384;-2.732;2023-04-06T11:44:28;100993.21;;;15.45;31.80
69219;BME280;56232;53.384;-2.732;2023-04-06T11:46:52;100997.63;;;15.76;33.43
69219;BME280;56232;53.384;-2.732;2023-04-06T11:49:09;100995.79;;;15.19;32.73
69219;BME280;56232;53.384;-2.732;2023-04-06T11:51:36;100995.82;;;14.29;33.07
69219;BME280;56232;53.384;-2.732;2023-04-06T11:54:00;100991.97;;;15.08;33.01
69219;BME280;56232;53.384;-2.732;2023-04-06T11:56:27;100992.52;;;15.40;33.41
69219;BME280;56232;53.384;-2.732;2023-04-06T11:58:53;100992.43;;;15.77;33.35
69219;BME280;56232;53.384;-2.732;2023-04-06T12:01:17;100997.70;;;15.12;32.84
69219;BME280;56232;53.384;-2.732;2023-04-06T12:03:43;100997.52;;;15.54;32.46
69219;BME280;56232;53.384;-2.732;2023-04-06T12:06:08;101001.90;;;16.11;32.83
69219;BME280;56232;53.384;-2.732;2023-04-06T12:08:34;101006.27;;;15.82;32.32
69219;BME280;56232;53.384;-2.732;2023-04-06T12:11:00;101002.76;;;15.49;32.64
69219;BME280;56232;53.384;-2.732;2023-04-06T12:13:25;101008.47;;;16.38;32.60
69219;BME280;56232;53.384;-2.732;2023-04-06T12:15:52;101001.51;;;15.54;32.83
69219;BME280;56232;53.384;-2.732;2023-04-06T12:18:16;101001.92;;;15.99;33.18
69219;BME280;56232;53.384;-2.732;2023-04-06T12:20:42;101003.97;;;15.52;32.40
69219;BME280;56232;53.384;-2.732;2023-04-06T12:23:07;101005.79;;;15.79;32.72
69219;BME280;56232;53.384;-2.732;2023-04-06T12:25:33;101006.71;;;15.58;32.93
69219;BME280;56232;53.384;-2.732;2023-04-06T12:27:59;101005.75;;;15.68;32.98
69219;BME280;56232;53.384;-2.732;2023-04-06T12:30:24;101010.06;;;15.11;33.14
69219;BME280;56232;53.384;-2.732;2023-04-06T12:32:51;101011.80;;;14.98;32.95